createdAt,value
2019-01-21T00:00:49.988Z,72.30
2019-01-21T00:03:23.915Z,71.97
2019-01-21T00:05:57.648Z,64.47
2019-01-21T00:08:31.471Z,62.50
2019-01-21T00:11:05.134Z,65.80
2019-01-21T00:13:38.841Z,59.00
2019-01-21T00:16:12.871Z,51.70
2019-01-21T00:18:46.517Z,48.70
2019-01-21T00:21:20.111Z,49.63
2019-01-21T00:23:53.764Z,48.87
2019-01-21T00:26:27.431Z,55.63
2019-01-21T00:29:01.060Z,54.63
2019-01-21T00:31:34.641Z,54.93
2019-01-21T00:34:08.345Z,51.97
2019-01-21T00:36:42.501Z,54.97
2019-01-21T00:39:16.138Z,56.97
2019-01-21T00:41:49.740Z,54.77
2019-01-21T00:44:23.439Z,57.10
2019-01-21T00:46:57.025Z,55.07
2019-01-21T00:49:30.706Z,56.10
2019-01-21T00:52:04.370Z,61.53
2019-01-21T00:54:38.007Z,52.43
2019-01-21T00:57:12.363Z,54.17
2019-01-21T00:59:46.000Z,52.80
2019-01-21T01:02:20.718Z,52.03
2019-01-21T01:08:31.709Z,48.40
2019-01-21T01:11:05.640Z,48.33
2019-01-21T01:13:39.268Z,47.20
2019-01-21T01:16:12.870Z,50.43
2019-01-21T01:18:46.504Z,46.90
2019-01-21T01:25:07.857Z,48.13
2019-01-21T01:27:41.516Z,43.37
2019-01-21T01:30:17.251Z,40.53
2019-01-21T01:32:50.906Z,42.23
2019-01-21T01:35:24.742Z,39.07
2019-01-21T01:37:58.999Z,40.03
2019-01-21T01:40:32.694Z,37.90
2019-01-21T01:43:06.356Z,40.97
2019-01-21T01:45:40.353Z,37.00
2019-01-21T01:48:13.942Z,44.57
2019-01-21T01:50:47.638Z,37.57
2019-01-21T01:53:21.246Z,38.83
2019-01-21T01:55:55.768Z,42.13
2019-01-21T01:58:29.351Z,35.70
2019-01-21T02:01:03.052Z,38.10
2019-01-21T02:03:36.643Z,39.47
2019-01-21T02:06:10.358Z,40.80
2019-01-21T02:08:44.016Z,37.47
2019-01-21T02:11:17.696Z,38.67
2019-01-21T02:13:51.390Z,36.10
2019-01-21T02:16:25.006Z,32.23
2019-01-21T02:18:58.684Z,40.43
2019-01-21T02:21:35.555Z,32.07
2019-01-21T02:24:09.729Z,33.57
2019-01-21T02:26:47.423Z,30.97
2019-01-21T02:29:24.058Z,31.37
2019-01-21T02:32:34.351Z,27.73
2019-01-21T02:35:17.062Z,31.50
2019-01-21T02:38:08.695Z,34.03
2019-01-21T02:40:48.276Z,31.17
2019-01-21T02:43:43.072Z,31.97
2019-01-21T02:46:19.783Z,29.23
2019-01-21T02:48:59.582Z,32.47
2019-01-21T02:55:30.247Z,30.53
2019-01-21T02:58:21.516Z,27.77
2019-01-21T03:01:16.401Z,29.40
2019-01-21T03:03:53.508Z,27.50
2019-01-21T03:06:32.864Z,32.57
2019-01-21T03:09:18.089Z,26.70
2019-01-21T03:12:12.738Z,28.40
2019-01-21T03:18:07.958Z,30.10
2019-01-21T03:20:56.495Z,28.80
2019-01-21T03:23:35.914Z,30.03
2019-01-21T03:26:15.435Z,32.47
2019-01-21T03:28:57.987Z,32.77
2019-01-21T03:31:43.319Z,27.27
2019-01-21T03:34:53.170Z,25.43
2019-01-21T03:37:56.521Z,28.80
2019-01-21T03:40:49.815Z,30.50
2019-01-21T03:46:53.533Z,30.93
2019-01-21T03:49:34.089Z,32.13
2019-01-21T03:52:22.614Z,29.43
2019-01-21T03:54:57.562Z,29.17
2019-01-21T03:57:40.143Z,28.63
2019-01-21T04:00:22.368Z,25.47
2019-01-21T04:03:07.269Z,26.90
2019-01-21T04:05:43.937Z,28.80
2019-01-21T04:08:23.311Z,26.83
2019-01-21T04:11:02.876Z,28.87
2019-01-21T04:13:42.056Z,25.60
2019-01-21T04:16:36.721Z,22.00
2019-01-21T04:19:22.335Z,29.90
2019-01-21T04:22:11.048Z,23.80
2019-01-21T04:24:50.255Z,29.37
2019-01-21T04:27:32.564Z,23.10
2019-01-21T04:30:09.238Z,29.37
2019-01-21T04:33:03.954Z,26.17
2019-01-21T04:35:46.277Z,25.40
2019-01-21T04:41:42.120Z,24.13
2019-01-21T04:44:27.623Z,25.50
2019-01-21T04:47:07.271Z,24.87
2019-01-21T04:49:46.504Z,26.00
2019-01-21T04:52:29.100Z,26.10
2019-01-21T04:55:20.571Z,26.60
2019-01-21T04:58:03.058Z,23.93
2019-01-21T05:03:49.933Z,25.87
2019-01-21T05:06:41.354Z,24.57
2019-01-21T05:09:25.503Z,26.60
2019-01-21T05:12:07.900Z,28.27
2019-01-21T05:15:13.301Z,24.23
2019-01-21T05:18:21.977Z,28.17
2019-01-21T05:21:15.128Z,30.67
2019-01-21T05:24:11.026Z,27.47
2019-01-21T05:26:59.799Z,22.13
2019-01-21T05:29:48.276Z,27.03
2019-01-21T05:32:27.745Z,21.43
2019-01-21T05:35:23.785Z,18.57
2019-01-21T05:41:00.464Z,25.07
2019-01-21T05:43:40.231Z,24.23
2019-01-21T05:46:26.068Z,24.07
2019-01-21T05:49:20.568Z,24.27
2019-01-21T05:52:13.819Z,23.63
2019-01-21T05:55:02.365Z,23.77
2019-01-21T05:57:41.989Z,28.23
2019-01-21T06:00:38.328Z,33.37
2019-01-21T06:03:27.015Z,28.90
2019-01-21T06:06:15.089Z,28.37
2019-01-21T06:09:15.433Z,25.80
2019-01-21T06:11:54.909Z,25.73
2019-01-21T06:14:34.445Z,31.63
2019-01-21T06:17:22.289Z,26.67
2019-01-21T06:23:17.837Z,29.37
2019-01-21T06:25:57.244Z,26.67
2019-01-21T06:28:48.549Z,24.33
2019-01-21T06:31:27.719Z,29.00
2019-01-21T06:34:16.237Z,29.33
2019-01-21T06:37:04.860Z,25.30
2019-01-21T06:40:03.714Z,28.53
2019-01-21T06:46:18.361Z,24.57
2019-01-21T06:49:04.844Z,28.00
2019-01-21T06:51:56.406Z,26.30
2019-01-21T06:54:35.786Z,25.87
2019-01-21T06:57:29.210Z,22.87
2019-01-21T07:00:17.473Z,28.33
2019-01-21T07:03:08.898Z,22.20
2019-01-21T07:05:54.419Z,25.07
2019-01-21T07:11:40.363Z,25.03
2019-01-21T07:14:17.029Z,24.97
2019-01-21T07:17:15.048Z,22.43
2019-01-21T07:20:09.852Z,27.20
2019-01-21T07:22:58.444Z,27.30
2019-01-21T07:25:53.148Z,24.83
2019-01-21T07:28:38.599Z,28.43
2019-01-21T07:31:23.643Z,22.93
2019-01-21T07:34:03.340Z,28.53
2019-01-21T07:36:58.074Z,27.00
2019-01-21T07:39:40.673Z,29.37
2019-01-21T07:42:29.285Z,27.93
2019-01-21T07:45:14.613Z,24.93
2019-01-21T07:47:57.091Z,30.07
2019-01-21T07:50:45.801Z,26.97
2019-01-21T07:53:37.651Z,27.13
2019-01-21T07:56:14.323Z,27.77
2019-01-21T07:59:10.273Z,26.53
2019-01-21T08:02:08.382Z,25.50
2019-01-21T08:04:47.808Z,25.67
2019-01-21T08:07:24.479Z,27.47
2019-01-21T08:10:17.440Z,26.40
2019-01-21T08:13:03.206Z,30.90
2019-01-21T08:15:39.899Z,28.70
2019-01-21T08:18:40.239Z,27.83
2019-01-21T08:21:42.765Z,28.73
2019-01-21T08:24:27.813Z,25.83
2019-01-21T08:27:40.646Z,27.73
2019-01-21T08:30:19.807Z,25.67
2019-01-21T08:33:16.235Z,29.60
2019-01-21T08:36:11.131Z,29.73
2019-01-21T08:38:47.840Z,28.87
2019-01-21T08:41:36.225Z,22.67
2019-01-21T08:44:18.833Z,27.00
2019-01-21T08:47:13.619Z,23.30
2019-01-21T08:49:59.949Z,26.20
2019-01-21T08:52:39.178Z,26.70
2019-01-21T08:55:30.745Z,34.97
2019-01-21T08:58:26.633Z,31.43
2019-01-21T09:04:30.275Z,22.13
2019-01-21T09:07:26.049Z,21.53
2019-01-21T09:10:02.889Z,21.80
2019-01-21T09:12:55.849Z,21.03
2019-01-21T09:15:32.551Z,28.97
2019-01-21T09:18:09.237Z,29.90
2019-01-21T09:21:02.221Z,29.57
2019-01-21T09:23:44.719Z,26.47
2019-01-21T09:26:45.457Z,29.17
2019-01-21T09:29:30.700Z,21.80
2019-01-21T09:32:19.622Z,27.67
2019-01-21T09:37:53.648Z,27.30
2019-01-21T09:40:57.844Z,28.60
2019-01-21T09:43:43.374Z,29.47
2019-01-21T09:46:31.854Z,27.93
2019-01-21T09:49:04.447Z,25.20
2019-01-21T09:51:40.387Z,30.07
2019-01-21T09:54:14.156Z,29.23
2019-01-21T09:56:48.879Z,32.83
2019-01-21T09:59:24.463Z,31.03
2019-01-21T10:01:58.298Z,30.30
2019-01-21T10:04:40.087Z,29.70
2019-01-21T10:07:16.744Z,32.27
2019-01-21T10:10:12.625Z,31.13
2019-01-21T10:13:16.335Z,23.37
2019-01-21T10:15:58.595Z,24.90
2019-01-21T10:18:47.113Z,24.47
2019-01-21T10:21:42.069Z,24.90
2019-01-21T10:24:30.822Z,28.17
2019-01-21T10:27:34.931Z,24.17
2019-01-21T10:30:23.870Z,21.60
2019-01-21T10:33:18.599Z,21.27
2019-01-21T10:36:00.258Z,22.37
2019-01-21T10:39:05.866Z,22.60
2019-01-21T10:41:48.040Z,27.40
2019-01-21T10:47:29.711Z,24.07
2019-01-21T10:50:12.232Z,21.97
2019-01-21T10:52:57.758Z,23.67
2019-01-21T10:55:54.142Z,23.30
2019-01-21T10:58:48.682Z,20.93
2019-01-21T11:01:40.183Z,20.47
2019-01-21T11:04:17.241Z,26.10
2019-01-21T11:07:20.913Z,27.30
2019-01-21T11:09:57.629Z,25.57
2019-01-21T11:12:37.007Z,24.70
2019-01-21T11:15:43.760Z,25.57
2019-01-21T11:18:34.661Z,26.33
2019-01-21T11:21:20.132Z,31.67
2019-01-21T11:24:02.538Z,28.03
2019-01-21T11:27:00.110Z,24.77
2019-01-21T11:32:45.871Z,25.13
2019-01-21T11:35:25.294Z,25.37
2019-01-21T11:38:04.854Z,29.97
2019-01-21T11:40:41.588Z,31.80
2019-01-21T11:43:36.630Z,28.77
2019-01-21T11:46:13.332Z,27.37
2019-01-21T11:48:55.782Z,28.43
2019-01-21T11:51:49.958Z,26.40
2019-01-21T11:54:27.649Z,30.93
2019-01-21T11:57:21.092Z,39.70
2019-01-21T12:00:17.236Z,39.37
2019-01-21T12:02:56.589Z,34.10
2019-01-21T12:05:33.286Z,29.87
2019-01-21T12:08:12.362Z,31.97
2019-01-21T12:11:08.550Z,31.13
2019-01-21T12:17:12.490Z,30.33
2019-01-21T12:19:49.164Z,33.67
2019-01-21T12:22:44.000Z,30.37
2019-01-21T12:25:23.366Z,28.83
2019-01-21T12:28:11.540Z,28.07
2019-01-21T12:30:57.087Z,28.97
2019-01-21T12:33:39.258Z,30.77
2019-01-21T12:36:18.928Z,28.13
2019-01-21T12:38:55.596Z,30.80
2019-01-21T12:41:40.678Z,28.57
2019-01-21T12:44:33.666Z,33.53
2019-01-21T12:50:41.591Z,33.67
2019-01-21T12:53:45.602Z,31.37
2019-01-21T12:56:57.058Z,28.87
2019-01-21T12:59:41.730Z,31.97
2019-01-21T13:02:27.032Z,33.57
2019-01-21T13:05:06.417Z,28.30
2019-01-21T13:08:04.310Z,26.07
2019-01-21T13:10:52.689Z,34.73
2019-01-21T13:13:37.872Z,31.23
2019-01-21T13:16:26.523Z,30.40
2019-01-21T13:19:05.893Z,41.37
2019-01-21T13:21:54.302Z,36.87
2019-01-21T13:25:01.189Z,30.33
2019-01-21T13:28:05.030Z,34.73
2019-01-21T13:30:44.310Z,32.70
2019-01-21T13:33:32.675Z,36.80
2019-01-21T13:36:27.392Z,30.73
2019-01-21T13:39:09.740Z,33.13
2019-01-21T13:41:51.661Z,33.93
2019-01-21T13:44:30.871Z,34.23
2019-01-21T13:47:33.066Z,36.90
2019-01-21T13:53:21.000Z,33.37
2019-01-21T13:56:06.083Z,34.00
2019-01-21T13:58:59.337Z,38.03
2019-01-21T14:01:43.153Z,45.77
2019-01-21T14:04:20.183Z,46.57
2019-01-21T14:07:03.799Z,48.57
2019-01-21T14:09:58.425Z,38.20
2019-01-21T14:12:35.093Z,43.67
2019-01-21T14:15:31.322Z,38.17
2019-01-21T14:18:24.491Z,44.83
2019-01-21T14:21:01.210Z,41.90
2019-01-21T14:26:37.854Z,41.63
2019-01-21T14:29:23.183Z,33.87
2019-01-21T14:32:16.208Z,32.83
2019-01-21T14:35:21.412Z,38.27
2019-01-21T14:38:17.540Z,38.03
2019-01-21T14:40:56.930Z,35.27
2019-01-21T14:43:54.018Z,40.30
2019-01-21T14:46:55.247Z,36.17
2019-01-21T14:49:37.304Z,46.37
2019-01-21T14:55:35.955Z,45.57
2019-01-21T14:58:12.630Z,41.10
2019-01-21T15:00:58.472Z,42.30
2019-01-21T15:03:47.114Z,36.43
2019-01-21T15:06:41.903Z,35.87
2019-01-21T15:09:27.198Z,29.73
2019-01-21T15:12:21.811Z,34.97
2019-01-21T15:15:17.923Z,37.00
2019-01-21T15:17:54.673Z,37.20
2019-01-21T15:20:31.402Z,40.00
2019-01-21T15:26:15.780Z,39.93
2019-01-21T15:29:01.249Z,38.13
2019-01-21T15:31:46.752Z,40.40
2019-01-21T15:34:38.262Z,50.33
2019-01-21T15:37:26.528Z,59.97
2019-01-21T15:40:21.349Z,67.17
2019-01-21T15:43:14.468Z,54.43
2019-01-21T15:45:53.933Z,47.73
2019-01-21T15:48:51.704Z,42.70
2019-01-21T15:51:33.869Z,42.83
2019-01-21T15:54:34.577Z,43.67
2019-01-21T15:57:32.243Z,56.27
2019-01-21T16:03:37.815Z,53.97
2019-01-21T16:06:17.089Z,52.43
2019-01-21T16:09:30.451Z,50.57
2019-01-21T16:12:09.924Z,42.70
2019-01-21T16:14:46.621Z,44.57
2019-01-21T16:17:31.919Z,43.70
2019-01-21T16:20:11.190Z,41.20
2019-01-21T16:22:59.600Z,36.20
2019-01-21T16:25:39.126Z,43.53
2019-01-21T16:28:21.332Z,42.80
2019-01-21T16:31:10.099Z,40.43
2019-01-21T16:33:49.599Z,39.17
2019-01-21T16:36:44.113Z,46.40
2019-01-21T16:39:40.340Z,45.23
2019-01-21T16:42:15.737Z,44.97
2019-01-21T16:44:49.574Z,46.57
2019-01-21T16:47:23.244Z,50.43
2019-01-21T16:49:57.107Z,42.13
2019-01-21T16:52:30.787Z,52.17
2019-01-21T16:55:05.889Z,50.67
2019-01-21T16:57:39.535Z,48.00
2019-01-21T17:00:14.975Z,46.00
2019-01-21T17:02:48.643Z,45.93
2019-01-21T17:05:22.435Z,43.97
2019-01-21T17:07:56.110Z,50.70
2019-01-21T17:10:29.725Z,52.70
2019-01-21T17:13:03.389Z,48.13
2019-01-21T17:15:36.962Z,48.33
2019-01-21T17:18:10.671Z,48.43
2019-01-21T17:20:44.339Z,51.67
2019-01-21T17:23:17.971Z,43.80
2019-01-21T17:25:53.403Z,45.60
2019-01-21T17:28:27.127Z,49.30
2019-01-21T17:31:00.756Z,50.43
2019-01-21T17:33:34.546Z,49.30
2019-01-21T17:36:08.241Z,53.07
2019-01-21T17:38:42.003Z,49.53
2019-01-21T17:41:15.753Z,57.13
2019-01-21T17:43:49.492Z,62.70
2019-01-21T17:46:23.277Z,70.83
2019-01-21T17:48:57.356Z,63.90
2019-01-21T17:51:34.320Z,54.00
2019-01-21T17:54:06.520Z,52.43
2019-01-21T17:56:40.152Z,50.40
2019-01-21T17:59:13.857Z,47.27
2019-01-21T18:01:47.591Z,61.77
2019-01-21T18:04:21.619Z,56.80
2019-01-21T18:06:55.570Z,64.17
2019-01-21T18:09:29.236Z,64.33
2019-01-21T18:12:02.867Z,73.27
2019-01-21T18:14:36.460Z,64.00
2019-01-21T18:17:10.205Z,66.93
2019-01-21T18:19:43.810Z,54.77
2019-01-21T18:22:17.569Z,64.53
2019-01-21T18:24:51.192Z,57.80
2019-01-21T18:27:24.919Z,55.30
2019-01-21T18:29:58.516Z,52.03
2019-01-21T18:32:32.134Z,55.23
2019-01-21T18:35:08.203Z,60.20
2019-01-21T18:37:42.224Z,52.47
2019-01-21T18:40:18.225Z,53.53
2019-01-21T18:42:51.962Z,51.67
2019-01-21T18:45:26.357Z,56.30
2019-01-21T18:47:59.987Z,51.60
2019-01-21T18:50:33.771Z,53.03
2019-01-21T18:53:07.502Z,53.90
2019-01-21T18:55:41.240Z,53.60
2019-01-21T18:58:14.833Z,54.00
2019-01-21T19:00:48.545Z,51.20
2019-01-21T19:03:22.231Z,53.20
2019-01-21T19:05:55.913Z,52.63
2019-01-21T19:08:29.551Z,53.97
2019-01-21T19:11:03.198Z,48.03
2019-01-21T19:13:36.873Z,56.67
2019-01-21T19:16:10.580Z,67.37
2019-01-21T19:18:44.352Z,67.37
2019-01-21T19:21:18.112Z,67.00
2019-01-21T19:23:54.783Z,65.83
2019-01-21T19:26:28.519Z,59.03
2019-01-21T19:29:02.282Z,60.30
2019-01-21T19:31:35.918Z,62.23
2019-01-21T19:34:09.670Z,67.63
2019-01-21T19:36:43.369Z,75.10
2019-01-21T19:39:17.102Z,76.50
2019-01-21T19:41:50.902Z,74.40
2019-01-21T19:44:24.567Z,77.50
2019-01-21T19:46:58.284Z,81.37
2019-01-21T19:49:31.946Z,83.07
2019-01-21T19:52:05.654Z,76.90
2019-01-21T19:54:39.348Z,70.67
2019-01-21T19:57:12.995Z,69.87
2019-01-21T19:59:46.592Z,72.70
2019-01-21T20:02:20.306Z,64.70
2019-01-21T20:04:53.978Z,61.07
2019-01-21T20:07:27.616Z,60.30
2019-01-21T20:10:01.281Z,57.17
2019-01-21T20:12:35.022Z,54.67
2019-01-21T20:15:11.936Z,60.20
2019-01-21T20:17:45.810Z,50.23
2019-01-21T20:20:31.568Z,55.13
2019-01-21T20:23:05.248Z,55.20
2019-01-21T20:25:39.038Z,60.40
2019-01-21T20:28:13.423Z,53.87
2019-01-21T20:30:47.003Z,50.63
2019-01-21T20:33:20.793Z,51.30
2019-01-21T20:35:54.447Z,58.20
2019-01-21T20:38:28.097Z,51.00
2019-01-21T20:41:01.793Z,53.90
2019-01-21T20:43:35.544Z,55.07
2019-01-21T20:46:09.284Z,54.97
2019-01-21T20:48:43.042Z,58.30
2019-01-21T20:51:16.644Z,62.77
2019-01-21T20:53:50.419Z,62.27
2019-01-21T20:56:24.094Z,64.57
2019-01-21T20:58:57.734Z,60.70
2019-01-21T21:01:31.412Z,61.43
2019-01-21T21:04:05.260Z,68.73
2019-01-21T21:06:39.065Z,59.80
2019-01-21T21:09:12.746Z,59.77
2019-01-21T21:11:46.366Z,55.47
2019-01-21T21:14:20.033Z,61.63
2019-01-21T21:16:53.902Z,60.37
2019-01-21T21:19:27.574Z,59.07
2019-01-21T21:22:01.272Z,60.67
2019-01-21T21:24:34.877Z,56.10
2019-01-21T21:27:08.591Z,60.90
2019-01-21T21:29:42.330Z,63.10
2019-01-21T21:32:16.110Z,54.90
2019-01-21T21:34:49.849Z,62.40
2019-01-21T21:37:23.540Z,66.80
2019-01-21T21:39:57.566Z,66.30
2019-01-21T21:42:31.260Z,66.53
2019-01-21T21:45:07.927Z,71.47
2019-01-21T21:47:41.711Z,66.87
2019-01-21T21:50:27.369Z,64.70
2019-01-21T21:53:01.296Z,65.30
2019-01-21T21:55:35.421Z,63.10
2019-01-21T21:58:09.426Z,70.50
2019-01-21T22:00:43.186Z,69.20
2019-01-21T22:03:16.914Z,67.87
2019-01-21T22:05:50.636Z,65.93
2019-01-21T22:08:24.825Z,66.53
2019-01-21T22:10:58.468Z,67.90
2019-01-21T22:13:32.096Z,65.07
2019-01-21T22:16:05.858Z,68.43
2019-01-21T22:18:39.529Z,71.17
2019-01-21T22:21:13.225Z,79.43
2019-01-21T22:23:46.984Z,83.00
2019-01-21T22:26:20.662Z,71.23
2019-01-21T22:28:54.260Z,63.33
2019-01-21T22:31:27.961Z,69.73
2019-01-21T22:34:01.700Z,69.60
2019-01-21T22:36:36.678Z,74.40
2019-01-21T22:39:10.352Z,69.90
2019-01-21T22:41:43.920Z,70.30
2019-01-21T22:44:17.596Z,59.30
2019-01-21T22:46:51.197Z,66.17
2019-01-21T22:49:24.905Z,60.60
2019-01-21T22:51:58.500Z,60.03
2019-01-21T22:54:32.128Z,66.27
2019-01-21T22:57:06.242Z,63.33
2019-01-21T22:59:39.870Z,75.23
2019-01-21T23:02:13.650Z,75.90
2019-01-21T23:04:47.254Z,67.93
2019-01-21T23:07:21.190Z,77.93
2019-01-21T23:09:55.032Z,72.73
2019-01-21T23:12:28.710Z,71.93
2019-01-21T23:15:02.321Z,77.10
2019-01-21T23:17:36.014Z,75.73
2019-01-21T23:20:10.956Z,85.90
2019-01-21T23:22:48.985Z,73.57
2019-01-21T23:25:20.061Z,72.97
2019-01-21T23:27:53.676Z,76.87
2019-01-21T23:30:27.414Z,74.67
2019-01-21T23:33:01.131Z,71.97
2019-01-21T23:35:34.745Z,72.03
2019-01-21T23:38:08.402Z,71.43
2019-01-21T23:40:42.086Z,75.63
2019-01-21T23:43:15.681Z,74.50
2019-01-21T23:45:49.358Z,75.40
2019-01-21T23:48:23.012Z,77.50
2019-01-21T23:50:56.660Z,80.97
2019-01-21T23:53:30.426Z,73.63
2019-01-21T23:56:04.233Z,73.33
2019-01-21T23:58:37.907Z,74.80
